Time;durP1;ratioP1;P1;durP2;ratioP2;P2;SDS_P1;SDS_P2;PMS_P1;PMS_P2;Temp;Humidity;BMP_temperature;BMP_pressure;BME280_temperature;BME280_humidity;BME280_pressure;Samples;Min_cycle;Max_cycle;Signal;HPM_P1;HPM_P2
2022/12/18 00:00:58;;;;;;;;;58.75;46.50;;;;;0.66;61.96;101983.00;5089159;27;45638;-74
2022/12/18 00:03:23;;;;;;;;;59.00;47.50;;;;;0.36;61.14;101943.53;5076963;27;47650;-75
2022/12/18 00:05:50;;;;;;;;;55.75;47.50;;;;;1.04;61.76;102053.97;5088893;27;45386;-74
2022/12/18 00:08:16;;;;;;;;;64.00;47.75;;;;;1.40;61.63;102110.09;5085632;27;45334;-74
2022/12/18 00:10:43;;;;;;;;;50.00;43.00;;;;;1.34;61.10;102093.44;5120126;27;45437;-74
2022/12/18 00:13:08;;;;;;;;;61.75;47.25;;;;;1.19;61.27;102098.69;5078866;27;45388;-74
2022/12/18 00:15:35;;;;;;;;;53.00;47.00;;;;;0.96;61.48;102049.59;5078816;27;45427;-74
2022/12/18 00:18:00;;;;;;;;;57.75;45.50;;;;;1.07;61.09;102049.59;5087712;27;45373;-74
2022/12/18 00:20:25;;;;;;;;;66.25;53.25;;;;;0.96;61.36;102020.69;5084120;27;45403;-75
2022/12/18 00:22:52;;;;;;;;;63.75;49.50;;;;;1.04;61.28;102028.59;5081373;27;45664;-75
2022/12/18 00:25:18;;;;;;;;;62.00;49.75;;;;;1.44;61.04;102096.94;5089824;27;45319;-75
2022/12/18 00:27:44;;;;;;;;;61.25;51.25;;;;;1.41;61.19;102096.94;5074525;27;45674;-75
2022/12/18 00:30:10;;;;;;;;;52.50;44.00;;;;;1.26;61.44;102061.00;5071406;27;45232;-74
2022/12/18 00:32:35;;;;;;;;;56.25;47.75;;;;;1.44;61.14;102090.81;5085718;27;45339;-75
2022/12/18 00:35:01;;;;;;;;;61.00;47.00;;;;;0.61;60.55;101974.22;5094658;27;45461;-74
2022/12/18 00:37:26;;;;;;;;;67.75;50.00;;;;;0.23;61.06;101935.63;5077830;27;45369;-74
2022/12/18 00:39:52;;;;;;;;;61.00;50.25;;;;;0.03;61.20;101935.56;5079526;27;45523;-76
2022/12/18 00:45:01;;;;;;;;;59.50;43.00;;;;;1.18;60.89;102108.31;5068302;28;45556;-76
2022/12/18 00:47:27;;;;;;;;;65.25;49.50;;;;;0.93;60.88;102051.31;5093000;27;45602;-75
2022/12/18 00:49:52;;;;;;;;;60.00;46.75;;;;;0.95;61.28;102063.59;5080822;27;45467;-75
2022/12/18 00:52:17;;;;;;;;;63.25;51.50;;;;;0.42;60.78;101988.16;5074853;27;45440;-75
2022/12/18 00:54:43;;;;;;;;;61.75;50.50;;;;;0.41;61.02;101984.69;5083690;27;45473;-75
2022/12/18 00:57:08;;;;;;;;;65.00;48.00;;;;;0.94;61.30;102085.50;5098146;27;45514;-75
2022/12/18 00:59:33;;;;;;;;;68.25;55.00;;;;;0.69;61.58;102062.66;5094477;27;45432;-75
2022/12/18 01:01:59;;;;;;;;;56.50;46.25;;;;;-0.20;61.63;101922.38;5113625;27;45401;-75
2022/12/18 01:04:24;;;;;;;;;66.25;52.75;;;;;0.56;61.60;102041.63;5086000;27;45467;-75
2022/12/18 01:06:50;;;;;;;;;64.75;50.00;;;;;0.82;61.26;102072.31;5091969;27;45528;-75
2022/12/18 01:09:15;;;;;;;;;63.50;48.00;;;;;0.95;61.50;102084.63;5068368;27;45412;-75
2022/12/18 01:11:40;;;;;;;;;64.75;54.75;;;;;0.27;61.11;101976.78;5079297;27;46783;-75
2022/12/18 01:14:06;;;;;;;;;61.00;46.00;;;;;0.80;61.41;102076.72;5095797;27;45390;-77
2022/12/18 01:16:31;;;;;;;;;64.00;50.75;;;;;0.40;61.54;101995.19;5087346;27;45356;-73
2022/12/18 01:18:56;;;;;;;;;64.00;50.75;;;;;0.91;61.85;102074.13;5080787;27;45407;-74
2022/12/18 01:21:23;;;;;;;;;61.75;48.50;;;;;0.96;61.39;102077.63;5072476;27;46432;-73
2022/12/18 01:23:53;;;;;;;;;64.00;51.75;;;;;0.79;61.45;102070.56;5081825;27;45455;-74
2022/12/18 01:26:19;;;;;;;;;57.00;45.50;;;;;0.52;61.87;102013.59;5088966;27;45445;-74
2022/12/18 01:28:45;;;;;;;;;64.50;51.75;;;;;1.02;61.67;102069.75;5071821;27;45493;-75
2022/12/18 01:31:15;;;;;;;;;59.00;44.25;;;;;1.06;61.41;102078.53;5080161;27;45394;-73
2022/12/18 01:33:42;;;;;;;;;63.25;52.25;;;;;0.75;61.39;102054.81;5073037;27;47050;-74
2022/12/18 01:36:08;;;;;;;;;61.50;48.75;;;;;0.51;62.01;102040.72;5089447;27;45387;-74
2022/12/18 01:38:33;;;;;;;;;65.00;51.50;;;;;0.84;61.56;102081.97;5085533;27;45369;-74
2022/12/18 01:41:00;;;;;;;;;73.00;55.25;;;;;0.79;61.52;102074.94;5076682;27;45880;-74
2022/12/18 01:43:56;;;;;;;;;61.00;50.00;;;;;0.92;61.75;102068.84;5094170;27;45472;-73
2022/12/18 01:46:26;;;;;;;;;59.25;47.00;;;;;1.02;60.98;102067.13;5071980;27;45468;-73
2022/12/18 01:48:57;;;;;;;;;60.50;47.00;;;;;0.38;61.34;101957.53;5117004;27;45400;-73
2022/12/18 01:51:23;;;;;;;;;59.75;47.25;;;;;0.90;61.25;102051.34;5080097;27;45750;-73
2022/12/18 01:53:49;;;;;;;;;60.25;44.75;;;;;1.02;61.18;102066.25;5094040;27;45476;-73
2022/12/18 01:56:17;;;;;;;;;69.25;52.00;;;;;0.89;61.46;102050.47;5085482;27;45566;-73
2022/12/18 01:59:03;;;;;;;;;58.50;47.00;;;;;0.90;61.42;102056.59;5083902;27;45483;-74
2022/12/18 02:01:30;;;;;;;;;55.75;46.50;;;;;0.51;61.15;101990.81;5076515;27;45637;-75
2022/12/18 02:03:55;;;;;;;;;59.50;49.25;;;;;0.77;61.47;102026.78;5091452;27;45408;-74
2022/12/18 02:06:26;;;;;;;;;56.25;44.75;;;;;0.68;61.45;102006.63;5113038;27;45311;-75
2022/12/18 02:09:01;;;;;;;;;58.75;48.00;;;;;0.89;61.54;102039.97;5088626;27;45544;-73
2022/12/18 02:11:38;;;;;;;;;51.50;42.25;;;;;0.95;61.26;102034.69;5078464;27;46534;-74
2022/12/18 02:14:13;;;;;;;;;41.25;36.50;;;;;0.96;61.59;102046.09;5083467;27;45571;-75
2022/12/18 02:16:57;;;;;;;;;58.00;47.25;;;;;0.91;61.62;102042.59;5088518;27;45500;-74
2022/12/18 02:19:43;;;;;;;;;49.75;44.00;;;;;0.39;61.22;101959.28;5078007;27;45573;-73
2022/12/18 02:22:26;;;;;;;;;49.00;43.50;;;;;0.92;61.23;102031.16;5089484;27;45980;-74
2022/12/18 02:24:57;;;;;;;;;51.75;44.25;;;;;0.97;61.70;102022.44;5089695;27;45439;-75
2022/12/18 02:27:22;;;;;;;;;52.50;41.25;;;;;0.25;61.84;101920.75;5078419;27;45505;-76
2022/12/18 02:29:51;;;;;;;;;49.00;43.00;;;;;0.86;61.88;102012.78;5083826;27;45413;-75
2022/12/18 02:32:31;;;;;;;;;46.75;42.00;;;;;0.55;62.08;101966.31;5070648;27;45504;-75
2022/12/18 02:34:59;;;;;;;;;48.25;42.25;;;;;0.94;61.77;102027.69;5090136;27;45283;-75
2022/12/18 02:37:27;;;;;;;;;57.25;47.25;;;;;0.59;61.56;101967.22;5077940;27;45303;-75
2022/12/18 02:39:56;;;;;;;;;54.75;44.75;;;;;0.94;61.43;102016.31;5092538;27;45393;-74
2022/12/18 02:42:22;;;;;;;;;45.50;43.00;;;;;0.94;61.46;102022.41;5072980;27;46395;-75
2022/12/18 02:44:50;;;;;;;;;50.75;42.50;;;;;0.76;61.58;101986.50;5087278;27;45624;-74
2022/12/18 02:47:20;;;;;;;;;48.50;43.75;;;;;0.84;61.93;102020.69;5070794;27;45532;-75
2022/12/18 02:49:57;;;;;;;;;52.75;45.00;;;;;0.69;62.40;102015.38;5081292;27;45645;-75
2022/12/18 02:53:03;;;;;;;;;46.50;40.00;;;;;0.53;62.78;102015.34;5086627;27;47367;-75
2022/12/18 02:55:54;;;;;;;;;55.25;44.25;;;;;0.20;62.73;101959.22;5073721;27;45750;-75
2022/12/18 02:58:47;;;;;;;;;45.50;39.75;;;;;0.43;63.28;101997.81;5073103;27;45510;-75
2022/12/18 03:01:55;;;;;;;;;51.00;42.50;;;;;0.03;63.13;101943.44;5078927;27;45510;-75
2022/12/18 03:04:28;;;;;;;;;53.75;47.00;;;;;0.37;63.44;101995.19;5041425;28;46766;-75
2022/12/18 03:06:58;;;;;;;;;43.00;41.50;;;;;-0.17;63.10;101904.88;5066973;28;45620;-75
2022/12/18 03:09:36;;;;;;;;;50.25;43.75;;;;;0.33;62.98;101986.41;5055864;28;45280;-75
2022/12/18 03:12:23;;;;;;;;;48.50;44.75;;;;;0.45;63.63;102009.22;5055569;28;45636;-75
2022/12/18 03:15:17;;;;;;;;;47.50;42.25;;;;;0.39;63.13;101999.56;5065568;28;46221;-75
2022/12/18 03:17:49;;;;;;;;;54.25;44.25;;;;;0.39;63.31;102001.31;5032886;28;45654;-76
2022/12/18 03:20:19;;;;;;;;;53.00;45.50;;;;;0.41;63.57;101999.56;5036291;28;45453;-75
2022/12/18 03:22:50;;;;;;;;;62.00;48.25;;;;;0.08;63.05;101956.56;5035730;28;45717;-75
2022/12/18 03:25:17;;;;;;;;;48.00;41.50;;;;;0.41;63.38;102015.31;5042393;28;47183;-75
2022/12/18 03:27:48;;;;;;;;;51.25;44.50;;;;;0.18;63.63;101971.50;5032060;28;45550;-75
2022/12/18 03:30:15;;;;;;;;;50.00;43.50;;;;;0.45;63.02;102009.22;5053141;28;45558;-75
2022/12/18 03:32:48;;;;;;;;;52.75;45.25;;;;;0.47;63.00;102010.06;5053212;28;45663;-75
2022/12/18 03:35:18;;;;;;;;;53.75;43.50;;;;;0.53;63.51;102010.09;5053101;28;45334;-73
2022/12/18 03:37:44;;;;;;;;;44.00;39.75;;;;;0.32;62.83;101996.03;5036559;28;45547;-74
2022/12/18 03:40:10;;;;;;;;;60.50;44.50;;;;;-0.28;63.61;101906.59;5057080;28;45448;-74
2022/12/18 03:42:44;;;;;;;;;58.25;45.00;;;;;0.27;64.01;102000.41;5075272;27;45414;-74
2022/12/18 03:45:37;;;;;;;;;49.75;38.00;;;;;0.27;63.88;101991.63;5075541;27;46658;-75
2022/12/18 03:48:29;;;;;;;;;46.00;43.00;;;;;0.37;63.87;101997.81;5075220;27;45363;-74
2022/12/18 03:51:05;;;;;;;;;54.25;44.75;;;;;0.02;64.00;101940.81;5075340;28;45405;-74
2022/12/18 03:53:57;;;;;;;;;63.75;47.75;;;;;0.29;63.98;102001.25;5074023;28;45565;-74
2022/12/18 03:56:27;;;;;;;;;53.25;45.50;;;;;0.31;63.96;101996.00;5073996;28;47262;-75
2022/12/18 03:58:56;;;;;;;;;56.25;47.75;;;;;0.23;64.06;101980.25;5091222;27;45412;-74
2022/12/18 04:01:31;;;;;;;;;41.00;34.50;;;;;0.36;63.31;101975.91;5074347;27;45363;-74
2022/12/18 04:03:59;;;;;;;;;60.25;47.25;;;;;0.25;63.69;101957.50;5073598;28;45541;-74
2022/12/18 04:06:26;;;;;;;;;59.75;48.25;;;;;0.34;64.16;101975.03;5075229;27;47004;-74
2022/12/18 04:08:52;;;;;;;;;51.75;45.25;;;;;0.29;63.72;101974.16;5075269;27;45388;-74
2022/12/18 04:11:17;;;;;;;;;53.00;44.00;;;;;0.10;64.59;101974.06;5073354;28;45432;-74
2022/12/18 04:13:43;;;;;;;;;50.75;43.25;;;;;-0.04;64.33;101960.91;5074983;27;45315;-73
2022/12/18 04:16:09;;;;;;;;;61.00;48.25;;;;;-0.08;64.81;101974.88;5073503;28;45365;-74
2022/12/18 04:18:35;;;;;;;;;54.00;47.00;;;;;-0.29;65.08;101949.41;5074744;27;45377;-74
2022/12/18 04:21:01;;;;;;;;;47.50;41.75;;;;;-0.06;64.73;101988.00;5089779;27;45326;-74
2022/12/18 04:23:26;;;;;;;;;60.50;49.00;;;;;-0.05;65.28;101990.63;5075506;27;45252;-74
2022/12/18 04:25:52;;;;;;;;;54.50;47.75;;;;;-0.24;64.77;101936.34;5074982;27;45587;-74
2022/12/18 04:28:17;;;;;;;;;52.50;43.75;;;;;-0.09;64.53;101962.63;5074478;28;45313;-74
2022/12/18 04:30:43;;;;;;;;;59.75;43.00;;;;;-0.47;64.94;101894.25;5074898;27;45815;-73
2022/12/18 04:33:12;;;;;;;;;42.25;42.00;;;;;0.03;64.99;101967.06;5090911;27;45232;-73
2022/12/18 04:35:39;;;;;;;;;50.50;43.00;;;;;0.07;64.77;101973.19;5074958;27;46039;-74
2022/12/18 04:38:06;;;;;;;;;47.75;44.00;;;;;0.14;64.21;101985.47;5073707;28;46055;-74
2022/12/18 04:40:32;;;;;;;;;49.75;42.00;;;;;-0.08;64.75;101948.66;5075330;27;45344;-74
2022/12/18 04:42:57;;;;;;;;;54.00;46.50;;;;;0.20;64.90;101990.72;5074171;28;45619;-73
2022/12/18 04:45:22;;;;;;;;;49.75;44.75;;;;;0.10;64.74;101984.56;5075737;27;46158;-74
2022/12/18 04:47:48;;;;;;;;;53.75;44.75;;;;;0.07;64.52;101994.16;5076142;27;45485;-73
2022/12/18 04:50:13;;;;;;;;;41.75;35.75;;;;;0.13;65.13;101995.06;5076011;27;45441;-73
2022/12/18 04:52:38;;;;;;;;;57.00;47.75;;;;;-0.05;64.49;101940.78;5075474;27;45350;-73
2022/12/18 04:55:04;;;;;;;;;61.00;44.50;;;;;0.01;64.27;101973.16;5074669;27;46293;-75
2022/12/18 04:57:29;;;;;;;;;55.75;46.50;;;;;-0.14;64.58;101943.38;5074643;28;45402;-75
2022/12/18 04:59:55;;;;;;;;;57.25;47.25;;;;;-0.06;64.50;101946.03;5074801;27;45397;-75
2022/12/18 05:02:20;;;;;;;;;64.25;50.00;;;;;-0.14;64.50;101932.88;5056409;28;45398;-75
2022/12/18 05:04:46;;;;;;;;;52.25;45.75;;;;;0.18;64.42;101982.00;5074378;27;46229;-75
2022/12/18 05:07:11;;;;;;;;;59.75;46.75;;;;;0.21;63.82;101989.88;5074535;28;45384;-74
2022/12/18 05:09:36;;;;;;;;;58.50;50.75;;;;;0.16;64.33;101971.50;5074893;28;45350;-75
2022/12/18 05:12:02;;;;;;;;;60.50;48.25;;;;;0.28;63.56;101982.88;5074572;28;45352;-75
2022/12/18 05:14:28;;;;;;;;;51.25;44.50;;;;;-0.07;63.98;101929.44;5074130;28;46223;-75
2022/12/18 05:16:54;;;;;;;;;52.75;42.75;;;;;0.22;64.44;101983.75;5056585;28;45383;-75
2022/12/18 05:19:19;;;;;;;;;53.75;44.75;;;;;-0.45;63.94;101863.69;5074540;28;45367;-74
2022/12/18 05:21:45;;;;;;;;;58.50;45.75;;;;;-0.05;64.14;101930.28;5074472;27;45400;-74
2022/12/18 05:24:10;;;;;;;;;55.00;44.00;;;;;0.22;63.86;101978.50;5074350;27;45406;-74
2022/12/18 05:26:36;;;;;;;;;54.25;42.50;;;;;0.37;64.10;102017.06;5074647;27;45285;-74
2022/12/18 05:29:01;;;;;;;;;58.00;45.00;;;;;0.40;63.79;102013.56;5074287;27;45314;-75
2022/12/18 05:31:26;;;;;;;;;51.25;44.25;;;;;0.42;63.86;102011.81;5074600;27;45327;-74
2022/12/18 05:33:52;;;;;;;;;51.75;44.75;;;;;0.37;63.99;102018.81;5077402;27;46314;-75
2022/12/18 05:36:17;;;;;;;;;51.75;43.25;;;;;0.08;63.92;101969.69;5077871;27;45405;-75
2022/12/18 05:38:42;;;;;;;;;75.00;50.75;;;;;0.27;63.92;102005.66;5077923;27;45414;-75
2022/12/18 05:41:09;;;;;;;;;56.75;46.50;;;;;0.20;64.42;102003.84;5077671;27;45310;-74
2022/12/18 05:43:36;;;;;;;;;54.75;48.25;;;;;-0.07;64.18;101936.41;5077502;27;46269;-75
2022/12/18 05:46:11;;;;;;;;;56.00;44.00;;;;;0.16;63.65;101984.63;5078026;27;45401;-75
2022/12/18 05:48:37;;;;;;;;;58.00;44.50;;;;;-0.18;63.89;101925.88;5076384;28;45404;-75
2022/12/18 05:51:12;;;;;;;;;57.25;46.50;;;;;0.17;64.35;101994.22;5076330;28;45373;-74
2022/12/18 05:53:38;;;;;;;;;50.00;42.75;;;;;0.23;63.62;101996.00;5077323;27;45864;-75
2022/12/18 05:56:06;;;;;;;;;47.25;41.50;;;;;0.00;64.22;101932.94;5077311;27;45499;-75
2022/12/18 05:58:32;;;;;;;;;59.75;43.50;;;;;0.27;63.51;101982.03;5093508;27;45390;-75
2022/12/18 06:01:13;;;;;;;;;59.50;48.25;;;;;-0.40;63.90;101872.47;5093261;27;45436;-75
2022/12/18 06:03:39;;;;;;;;;39.00;38.75;;;;;0.19;63.25;101957.50;5093063;27;47173;-75
2022/12/18 06:06:13;;;;;;;;;51.50;44.25;;;;;0.20;63.92;101985.47;5076948;27;45552;-74
2022/12/18 06:08:39;;;;;;;;;50.50;44.75;;;;;-0.05;63.80;101955.66;5077558;28;45416;-74
2022/12/18 06:11:04;;;;;;;;;47.25;43.25;;;;;-0.15;64.10;101932.88;5076760;28;45436;-74
2022/12/18 06:13:29;;;;;;;;;53.50;44.50;;;;;0.09;63.74;101971.44;5075324;28;45432;-74
2022/12/18 06:15:55;;;;;;;;;50.00;42.50;;;;;0.10;64.02;101973.22;5076685;27;45431;-73
2022/12/18 06:18:20;;;;;;;;;47.00;40.75;;;;;-0.01;63.72;101954.81;5075315;28;45368;-73
2022/12/18 06:20:54;;;;;;;;;55.50;42.00;;;;;0.08;64.18;101967.06;5076994;27;45310;-73
2022/12/18 06:23:19;;;;;;;;;55.50;43.25;;;;;-0.08;63.29;101932.03;5092243;27;45662;-75
2022/12/18 06:25:45;;;;;;;;;52.00;44.75;;;;;-0.03;63.74;101956.53;5074790;28;45423;-75
2022/12/18 06:28:10;;;;;;;;;55.25;46.25;;;;;-0.47;63.31;101884.66;5075541;28;45994;-75
2022/12/18 06:30:36;;;;;;;;;46.50;42.00;;;;;-0.03;63.72;101975.78;5076322;27;45518;-75
2022/12/18 06:33:01;;;;;;;;;48.25;43.75;;;;;-0.05;63.58;101980.13;5076835;27;45946;-75
2022/12/18 06:35:26;;;;;;;;;56.00;43.50;;;;;-0.21;64.25;101955.56;5077013;27;45419;-74
2022/12/18 06:37:52;;;;;;;;;64.00;49.00;;;;;-0.39;63.29;101940.63;5058618;28;45476;-75
2022/12/18 06:40:17;;;;;;;;;43.50;38.75;;;;;-0.19;64.54;101963.44;5075289;28;45522;-73
2022/12/18 06:42:42;;;;;;;;;52.00;44.25;;;;;-0.12;63.83;101967.88;5073459;27;46264;-75
2022/12/18 06:45:08;;;;;;;;;45.50;40.50;;;;;-0.42;63.81;101921.38;5076031;27;45452;-75
2022/12/18 06:47:33;;;;;;;;;48.25;42.00;;;;;-0.21;64.07;101965.19;5056143;28;45387;-75
2022/12/18 06:49:59;;;;;;;;;56.75;45.50;;;;;-0.23;64.41;101964.31;5091845;27;45537;-75
2022/12/18 06:52:24;;;;;;;;;47.25;40.25;;;;;-0.61;64.05;101905.53;5075418;28;46925;-75
2022/12/18 06:54:50;;;;;;;;;53.75;43.25;;;;;-0.45;64.22;101917.00;5076431;28;45459;-75
2022/12/18 06:57:15;;;;;;;;;51.25;45.00;;;;;-0.23;64.30;101948.56;5075044;28;45405;-75
2022/12/18 06:59:40;;;;;;;;;50.25;44.50;;;;;-0.17;64.40;101953.84;5076572;28;45286;-75
2022/12/18 07:02:06;;;;;;;;;49.75;45.00;;;;;-0.11;64.13;101945.13;5074976;28;47357;-74
2022/12/18 07:04:31;;;;;;;;;44.75;40.50;;;;;-0.30;64.11;101902.22;5075807;27;45375;-73
2022/12/18 07:06:57;;;;;;;;;57.25;45.25;;;;;-0.40;63.87;101889.06;5076440;28;45311;-73
2022/12/18 07:09:23;;;;;;;;;56.75;44.75;;;;;-0.75;63.89;101828.63;5074023;28;45420;-72
2022/12/18 07:11:48;;;;;;;;;58.25;46.25;;;;;-0.45;63.32;101880.28;5073954;28;45476;-74
2022/12/18 07:14:13;;;;;;;;;49.75;42.75;;;;;-0.21;64.17;101926.72;5076381;28;45499;-73
2022/12/18 07:16:39;;;;;;;;;48.25;42.00;;;;;-0.62;63.70;101845.25;5075020;28;45749;-74
2022/12/18 07:19:04;;;;;;;;;55.00;48.50;;;;;-0.17;63.63;101946.00;5074859;28;45517;-73
2022/12/18 07:21:29;;;;;;;;;65.25;47.75;;;;;-0.17;63.87;101941.59;5074114;28;45574;-73
2022/12/18 07:23:55;;;;;;;;;48.50;43.50;;;;;-0.59;63.86;101864.50;5074626;28;45429;-73
2022/12/18 07:26:21;;;;;;;;;53.25;45.50;;;;;-0.20;63.95;101938.13;5072386;27;45801;-73
2022/12/18 07:28:47;;;;;;;;;55.75;45.50;;;;;-0.18;63.73;101933.72;5108726;27;45285;-73
2022/12/18 07:31:16;;;;;;;;;43.25;39.25;;;;;-0.10;63.08;101950.38;5108998;27;45488;-72
2022/12/18 07:33:42;;;;;;;;;44.25;38.75;;;;;-0.22;63.68;101901.38;5108964;27;45362;-73
2022/12/18 07:36:09;;;;;;;;;60.00;46.75;;;;;0.12;63.61;101953.97;5075048;28;45400;-73
2022/12/18 07:38:35;;;;;;;;;44.50;42.75;;;;;0.16;63.16;101940.00;5074982;28;45490;-72
2022/12/18 07:41:11;;;;;;;;;55.75;45.75;;;;;0.07;63.12;101946.94;5076484;27;45550;-73
2022/12/18 07:43:38;;;;;;;;;61.25;46.50;;;;;0.02;62.80;101961.81;5077673;28;45298;-73
2022/12/18 07:46:05;;;;;;;;;54.75;45.75;;;;;-0.07;63.00;101967.88;5077213;27;45375;-73
2022/12/18 07:48:31;;;;;;;;;47.00;35.25;;;;;-0.05;63.12;101969.66;5075722;27;45409;-73
2022/12/18 07:51:02;;;;;;;;;59.75;47.75;;;;;-0.48;63.40;101896.00;5074492;27;45468;-75
2022/12/18 07:53:27;;;;;;;;;47.25;45.00;;;;;-0.06;62.92;101960.00;5055414;28;45549;-73
2022/12/18 07:56:00;;;;;;;;;47.25;38.25;;;;;-0.04;62.68;101966.16;5055447;28;45773;-72
2022/12/18 07:58:26;;;;;;;;;47.50;42.50;;;;;-0.42;63.17;101926.63;5055148;28;45415;-73
2022/12/18 08:00:52;;;;;;;;;46.25;42.75;;;;;-0.20;64.01;101959.09;5055076;28;45326;-72
2022/12/18 08:03:18;;;;;;;;;37.50;37.50;;;;;-0.17;63.31;101956.47;5062610;28;45430;-73
2022/12/18 08:05:43;;;;;;;;;48.50;43.50;;;;;-0.44;63.36;101910.03;5075558;28;45330;-73
2022/12/18 08:08:09;;;;;;;;;40.00;39.50;;;;;-0.64;63.64;101909.91;5075316;28;45236;-73
2022/12/18 08:10:34;;;;;;;;;55.75;42.75;;;;;-0.27;63.52;101938.94;5073663;28;46884;-73
2022/12/18 08:12:59;;;;;;;;;59.50;50.00;;;;;-0.38;63.71;101925.78;5073377;28;45367;-73
2022/12/18 08:15:25;;;;;;;;;50.75;43.25;;;;;-0.54;63.42;101903.84;5075027;28;45200;-72
2022/12/18 08:17:50;;;;;;;;;53.00;45.00;;;;;-0.35;63.81;101933.69;5065274;28;45291;-73
2022/12/18 08:20:17;;;;;;;;;46.00;44.00;;;;;-0.42;63.59;101930.16;5060238;28;46592;-73
2022/12/18 08:22:42;;;;;;;;;52.25;45.50;;;;;-0.70;63.30;101902.91;5054649;28;45371;-72
2022/12/18 08:25:08;;;;;;;;;54.00;43.00;;;;;-0.74;63.69;101899.38;5073151;27;45537;-72
2022/12/18 08:27:33;;;;;;;;;52.00;45.00;;;;;-0.33;63.64;101957.28;5073744;28;45358;-72
2022/12/18 08:29:58;;;;;;;;;55.25;45.50;;;;;-0.25;63.42;101958.19;5073759;28;46436;-72
2022/12/18 08:32:28;;;;;;;;;47.00;40.75;;;;;-0.21;63.11;101973.06;5074943;28;45412;-72
2022/12/18 08:34:53;;;;;;;;;54.25;47.75;;;;;-0.24;63.04;101973.94;5073942;28;45367;-73
2022/12/18 08:37:19;;;;;;;;;61.50;49.00;;;;;-0.26;63.91;101974.78;5056603;28;45467;-73
2022/12/18 08:39:44;;;;;;;;;53.25;43.25;;;;;-0.36;63.68;101982.59;5066383;27;45567;-72
2022/12/18 08:44:58;;;;;;;;;66.00;50.25;;;;;-0.23;63.35;101985.28;5012695;28;45371;-73
2022/12/18 08:47:25;;;;;;;;;60.75;48.75;;;;;-0.21;63.75;101978.31;5029249;28;45346;-73
2022/12/18 08:49:51;;;;;;;;;51.50;46.25;;;;;-0.14;63.78;101981.84;5030662;28;47095;-73
2022/12/18 08:52:16;;;;;;;;;60.50;48.00;;;;;-0.10;63.46;101987.09;5029945;28;45485;-72
2022/12/18 08:54:41;;;;;;;;;60.50;47.00;;;;;-0.47;63.13;101942.34;5032729;28;45383;-73
2022/12/18 08:57:07;;;;;;;;;60.75;47.50;;;;;-0.10;63.11;101992.34;5031909;28;45325;-73
2022/12/18 08:59:32;;;;;;;;;65.50;47.75;;;;;-0.01;63.13;101994.16;5048352;28;47041;-73
2022/12/18 09:01:57;;;;;;;;;59.50;49.00;;;;;0.06;62.56;101987.19;5032024;28;45479;-74
2022/12/18 09:04:23;;;;;;;;;61.25;52.75;;;;;0.11;62.68;101980.22;5031967;28;45898;-73
2022/12/18 09:06:48;;;;;;;;;70.50;56.25;;;;;0.04;62.85;101953.09;5032057;28;45340;-73
2022/12/18 09:09:13;;;;;;;;;55.75;45.00;;;;;0.20;62.67;101974.13;5035344;28;46074;-73
2022/12/18 09:11:39;;;;;;;;;65.25;51.25;;;;;0.13;62.60;101981.94;5035425;28;45366;-74
2022/12/18 09:14:04;;;;;;;;;55.75;47.25;;;;;0.19;62.46;101982.84;5035494;28;45428;-73
2022/12/18 09:16:31;;;;;;;;;75.25;56.75;;;;;0.25;62.54;101985.50;5035618;28;45396;-73
2022/12/18 09:18:59;;;;;;;;;59.00;49.00;;;;;0.40;62.94;101976.81;5034915;28;45530;-72
2022/12/18 09:21:27;;;;;;;;;58.75;46.25;;;;;-0.12;62.20;101883.94;5046487;28;45501;-73
2022/12/18 09:23:54;;;;;;;;;40.50;40.00;;;;;0.39;62.35;101982.91;5078325;28;45407;-73
2022/12/18 09:26:21;;;;;;;;;54.00;42.25;;;;;0.35;61.83;101978.53;5078360;27;45446;-73
2022/12/18 09:28:46;;;;;;;;;61.00;50.00;;;;;0.22;62.27;101954.88;5078376;27;45367;-73
2022/12/18 09:31:13;;;;;;;;;51.00;43.50;;;;;0.28;61.82;101961.88;5076550;27;45439;-73
2022/12/18 09:33:38;;;;;;;;;53.00;45.25;;;;;0.27;62.29;101961.03;5077987;27;45468;-73
2022/12/18 09:36:06;;;;;;;;;52.25;44.75;;;;;0.29;62.48;101958.41;5078181;27;45361;-73
2022/12/18 09:38:32;;;;;;;;;48.50;42.25;;;;;0.34;62.54;101961.91;5077779;27;46607;-73
2022/12/18 09:41:05;;;;;;;;;54.50;44.50;;;;;0.31;61.84;101940.88;5077921;28;45194;-73
2022/12/18 09:43:56;;;;;;;;;58.00;46.75;;;;;0.22;62.11;101930.41;5077547;27;45323;-73
2022/12/18 09:46:33;;;;;;;;;55.75;45.75;;;;;0.61;61.77;101976.84;5077913;27;45303;-73
2022/12/18 09:49:03;;;;;;;;;64.00;48.25;;;;;0.68;61.73;101963.75;5078196;27;45415;-73
2022/12/18 09:51:33;;;;;;;;;58.50;48.00;;;;;0.71;61.41;101948.84;5076545;28;45292;-73
2022/12/18 09:54:06;;;;;;;;;62.00;48.00;;;;;0.78;61.90;101948.00;5077686;27;45362;-73
2022/12/18 09:56:37;;;;;;;;;55.50;47.00;;;;;0.26;61.05;101851.66;5076389;28;45484;-74
2022/12/18 09:59:05;;;;;;;;;58.75;46.75;;;;;1.12;60.92;101965.50;5077518;28;45406;-73
2022/12/18 10:01:32;;;;;;;;;59.75;46.75;;;;;1.04;60.70;101962.88;5076451;28;45449;-74
2022/12/18 10:03:59;;;;;;;;;44.75;42.50;;;;;0.70;61.18;101885.81;5076405;28;45438;-73
2022/12/18 10:06:58;;;;;;;;;51.75;44.25;;;;;0.61;60.67;101873.56;5077495;27;45529;-73
2022/12/18 10:09:57;;;;;;;;;61.25;47.75;;;;;1.30;60.82;101957.59;5077135;27;45383;-73
2022/12/18 10:12:37;;;;;;;;;50.50;42.50;;;;;0.91;60.59;101877.91;5077656;28;45339;-73
2022/12/18 10:15:10;;;;;;;;;53.75;45.00;;;;;1.43;60.49;101957.56;5077679;27;45297;-73
2022/12/18 10:17:54;;;;;;;;;64.25;50.50;;;;;1.42;59.94;101954.06;5078009;27;45485;-73
2022/12/18 10:20:28;;;;;;;;;65.50;52.50;;;;;1.49;59.96;101955.81;5077193;28;45502;-74
2022/12/18 10:22:56;;;;;;;;;55.00;45.25;;;;;1.60;59.32;101945.25;5078077;27;45441;-73
2022/12/18 10:25:24;;;;;;;;;57.50;46.75;;;;;1.68;60.08;101943.47;5077161;27;45401;-74
2022/12/18 10:27:58;;;;;;;;;58.75;47.00;;;;;1.72;59.57;101922.44;5075485;27;45516;-74
2022/12/18 10:30:25;;;;;;;;;59.50;47.50;;;;;1.79;59.94;101929.41;5075343;28;47220;-73
2022/12/18 10:32:51;;;;;;;;;51.50;44.25;;;;;1.86;59.59;101939.03;5076937;27;45332;-72
2022/12/18 10:35:23;;;;;;;;;68.25;49.00;;;;;1.43;59.24;101876.94;5075816;27;45379;-74
2022/12/18 10:38:06;;;;;;;;;64.75;50.50;;;;;1.90;59.03;101945.16;5075744;28;45350;-74
2022/12/18 10:40:32;;;;;;;;;73.50;54.00;;;;;1.90;58.46;101943.41;5076934;27;46181;-74
2022/12/18 10:43:10;;;;;;;;;74.50;57.50;;;;;1.84;58.76;101930.28;5076502;28;45350;-74
2022/12/18 10:45:35;;;;;;;;;72.25;55.25;;;;;1.82;58.55;101927.66;5075947;28;45363;-74
2022/12/18 10:48:01;;;;;;;;;72.25;57.25;;;;;1.98;59.03;101932.84;5077057;27;45405;-74
2022/12/18 10:50:34;;;;;;;;;98.25;74.50;;;;;1.64;58.48;101873.34;5075493;28;47410;-74
2022/12/18 10:53:03;;;;;;;;;77.50;58.25;;;;;2.14;58.78;101934.50;5077054;27;45463;-74
2022/12/18 10:55:38;;;;;;;;;82.25;63.00;;;;;2.19;58.70;101914.31;5076964;28;45321;-74
2022/12/18 10:58:24;;;;;;;;;84.75;66.00;;;;;2.31;58.25;101917.75;5076873;27;45334;-74
2022/12/18 11:01:10;;;;;;;;;78.75;58.25;;;;;2.30;58.08;101921.28;5075079;28;47331;-74
2022/12/18 11:03:58;;;;;;;;;71.00;54.75;;;;;2.07;58.28;101895.09;5076512;27;45337;-74
2022/12/18 11:06:24;;;;;;;;;70.00;53.00;;;;;2.23;58.33;101936.22;5076610;28;45306;-74
2022/12/18 11:09:18;;;;;;;;;78.75;61.25;;;;;2.31;58.75;101926.53;5076687;28;45283;-74
2022/12/18 11:11:49;;;;;;;;;76.75;61.00;;;;;1.92;58.04;101852.16;5076172;28;46770;-74
2022/12/18 11:14:23;;;;;;;;;82.00;60.25;;;;;2.18;58.14;101885.34;5074928;28;45843;-74
2022/12/18 11:16:50;;;;;;;;;67.00;56.75;;;;;2.34;58.54;101921.22;5076069;28;45399;-74
2022/12/18 11:19:35;;;;;;;;;90.00;68.25;;;;;2.37;58.47;101917.72;5075277;28;45471;-74
2022/12/18 11:22:03;;;;;;;;;66.00;49.25;;;;;2.19;59.02;101855.50;5076105;27;45410;-74
2022/12/18 11:24:32;;;;;;;;;70.25;55.75;;;;;2.65;58.09;101904.34;5076433;27;45350;-75
2022/12/18 11:27:01;;;;;;;;;73.50;53.50;;;;;2.15;57.43;101807.25;5076340;27;45287;-74
2022/12/18 11:29:34;;;;;;;;;61.50;50.00;;;;;2.61;57.66;101892.97;5075301;27;45394;-74